Time,TemperatureF,DewpointF,PressureIn,WindDirection,WindDirectionDegrees,WindSpeedMPH,WindSpeedGustMPH,Humidity,HourlyPrecipIn,Conditions,Clouds,dailyrainin,SoftwareType,DateUTC
2013-12-25 00:01:00,23.8,20.5,30.42,NNE,33,0.0,0.0,87,0.00,,SKC,0.00,VWS V13.00,2013-12-25 06:01:00,
2013-12-25 00:06:00,23.6,20.3,30.41,NNE,33,0.0,0.0,87,0.00,,SKC,0.00,VWS V13.00,2013-12-25 06:06:00,
2013-12-25 00:11:00,23.5,20.2,30.41,NNE,33,0.0,0.0,87,0.00,,SKC,0.00,VWS V13.00,2013-12-25 06:11:00,
2013-12-25 00:16:00,23.4,20.4,30.40,NNE,33,0.0,0.0,88,0.00,,SKC,0.00,VWS V13.00,2013-12-25 06:16:00,
2013-12-25 00:21:00,23.2,20.2,30.40,NNE,33,0.0,0.0,88,0.00,,SKC,0.00,VWS V13.00,2013-12-25 06:21:00,
2013-12-25 00:26:00,23.0,20.0,30.40,NNE,33,0.0,0.0,88,0.00,,SKC,0.00,VWS V13.00,2013-12-25 06:26:00,
2013-12-25 00:31:00,22.9,20.1,30.40,NNE,33,0.0,1.0,89,0.00,,SKC,0.00,VWS V13.00,2013-12-25 06:31:00,
2013-12-25 00:36:00,22.9,20.1,30.40,NNE,33,0.0,0.0,89,0.00,,SKC,0.00,VWS V13.00,2013-12-25 06:36:00,
2013-12-25 00:41:00,22.8,20.0,30.41,NNE,33,0.0,0.0,89,0.00,,SKC,0.00,VWS V13.00,2013-12-25 06:41:00,
2013-12-25 00:46:00,22.8,19.8,30.41,NNE,33,0.0,1.0,88,0.00,,SKC,0.00,VWS V13.00,2013-12-25 06:46:00,
2013-12-25 00:51:00,22.9,19.9,30.40,NNE,33,0.0,1.0,88,0.00,,SKC,0.00,VWS V13.00,2013-12-25 06:51:00,
2013-12-25 00:56:00,22.9,19.9,30.40,NNE,33,0.0,1.0,88,0.00,,SKC,0.00,VWS V13.00,2013-12-25 06:56:00,
2013-12-25 01:01:00,22.8,19.8,30.40,NNE,33,0.0,1.0,88,0.00,,SKC,0.00,VWS V13.00,2013-12-25 07:01:00,
2013-12-25 01:05:00,22.8,19.8,30.39,NNE,33,0.0,0.0,88,0.00,,SKC,0.00,VWS V13.00,2013-12-25 07:05:00,
2013-12-25 01:10:00,22.7,19.4,30.39,NE,36,0.0,2.0,87,0.00,,SKC,0.00,VWS V13.00,2013-12-25 07:10:00,
2013-12-25 01:15:00,22.7,19.1,30.39,East,88,1.0,3.0,86,0.00,,SKC,0.00,VWS V13.00,2013-12-25 07:15:00,
2013-12-25 01:20:00,22.8,19.2,30.39,East,88,2.0,4.0,86,0.00,,SKC,0.00,VWS V13.00,2013-12-25 07:20:00,
2013-12-25 01:25:00,23.0,19.2,30.39,East,90,4.0,4.0,85,0.00,,SKC,0.00,VWS V13.00,2013-12-25 07:25:00,
2013-12-25 01:30:00,23.2,19.4,30.39,East,94,1.0,4.0,85,0.00,,SKC,0.00,VWS V13.00,2013-12-25 07:30:00,
2013-12-25 01:35:00,23.3,19.2,30.40,East,89,1.0,2.0,84,0.00,,SKC,0.00,VWS V13.00,2013-12-25 07:35:00,
2013-12-25 01:40:00,23.4,19.3,30.40,East,90,2.0,6.0,84,0.00,,SKC,0.00,VWS V13.00,2013-12-25 07:40:00,
2013-12-25 01:45:00,23.4,19.3,30.40,East,91,0.0,6.0,84,0.00,,SKC,0.00,VWS V13.00,2013-12-25 07:45:00,
2013-12-25 01:50:00,23.4,19.3,30.40,East,90,0.0,6.0,84,0.00,,SKC,0.00,VWS V13.00,2013-12-25 07:50:00,
2013-12-25 01:55:00,23.5,19.4,30.40,East,90,0.0,6.0,84,0.00,,SKC,0.00,VWS V13.00,2013-12-25 07:55:00,
2013-12-25 02:00:00,23.5,19.7,30.40,East,90,0.0,6.0,85,0.00,,SKC,0.00,VWS V13.00,2013-12-25 08:00:00,
2013-12-25 02:05:00,23.4,19.6,30.40,East,90,0.0,0.0,85,0.00,,SKC,0.00,VWS V13.00,2013-12-25 08:05:00,
2013-12-25 02:09:00,23.3,19.5,30.41,East,90,0.0,0.0,85,0.00,,SKC,0.00,VWS V13.00,2013-12-25 08:09:00,
2013-12-25 02:14:00,23.0,19.5,30.41,East,90,0.0,0.0,86,0.00,,SKC,0.00,VWS V13.00,2013-12-25 08:14:00,
2013-12-25 02:19:00,22.7,19.1,30.41,East,90,0.0,0.0,86,0.00,,SKC,0.00,VWS V13.00,2013-12-25 08:19:00,
2013-12-25 02:24:00,22.4,19.1,30.41,East,90,0.0,0.0,87,0.00,,SKC,0.00,VWS V13.00,2013-12-25 08:24:00,
2013-12-25 02:29:00,22.1,18.8,30.41,East,90,0.0,0.0,87,0.00,,SKC,0.00,VWS V13.00,2013-12-25 08:29:00,
2013-12-25 02:34:00,22.0,18.7,30.42,East,90,0.0,0.0,87,0.00,,SKC,0.00,VWS V13.00,2013-12-25 08:34:00,
2013-12-25 02:39:00,21.7,18.4,30.41,East,90,0.0,0.0,87,0.00,,SKC,0.00,VWS V13.00,2013-12-25 08:39:00,
2013-12-25 02:44:00,21.7,18.7,30.42,East,90,0.0,0.0,88,0.00,,SKC,0.00,VWS V13.00,2013-12-25 08:44:00,
2013-12-25 02:49:00,21.7,18.7,30.42,East,90,0.0,0.0,88,0.00,,SKC,0.00,VWS V13.00,2013-12-25 08:49:00,
2013-12-25 02:54:00,21.8,19.1,30.42,East,90,0.0,0.0,89,0.00,,SKC,0.00,VWS V13.00,2013-12-25 08:54:00,
2013-12-25 02:59:00,21.7,19.0,30.42,East,90,0.0,0.0,89,0.00,,SKC,0.00,VWS V13.00,2013-12-25 08:59:00,
2013-12-25 03:04:00,21.5,18.8,30.42,East,90,0.0,0.0,89,0.00,,SKC,0.00,VWS V13.00,2013-12-25 09:04:00,
2013-12-25 03:09:00,21.3,18.6,30.42,East,90,0.0,0.0,89,0.00,,SKC,0.00,VWS V13.00,2013-12-25 09:09:00,
2013-12-25 03:14:00,21.1,18.6,30.42,East,90,0.0,0.0,90,0.00,,SKC,0.00,VWS V13.00,2013-12-25 09:14:00,
2013-12-25 03:19:00,20.8,18.3,30.43,East,90,0.0,0.0,90,0.00,,SKC,0.00,VWS V13.00,2013-12-25 09:19:00,
2013-12-25 03:24:00,20.7,18.5,30.43,East,90,0.0,0.0,91,0.00,,SKC,0.00,VWS V13.00,2013-12-25 09:24:00,
2013-12-25 03:29:00,20.6,18.4,30.43,East,90,0.0,0.0,91,0.00,,SKC,0.00,VWS V13.00,2013-12-25 09:29:00,
2013-12-25 03:34:00,20.6,18.6,30.43,East,90,0.0,0.0,92,0.00,,SKC,0.00,VWS V13.00,2013-12-25 09:34:00,
2013-12-25 03:39:00,20.5,18.5,30.43,East,90,0.0,0.0,92,0.00,,SKC,0.00,VWS V13.00,2013-12-25 09:39:00,
2013-12-25 03:44:00,20.5,18.5,30.43,East,90,0.0,0.0,92,0.00,,SKC,0.00,VWS V13.00,2013-12-25 09:44:00,
2013-12-25 03:49:00,20.5,18.5,30.43,East,90,0.0,0.0,92,0.00,,SKC,0.00,VWS V13.00,2013-12-25 09:49:00,
2013-12-25 03:54:00,20.4,18.5,30.44,East,90,0.0,0.0,92,0.00,,SKC,0.00,VWS V13.00,2013-12-25 09:54:00,
2013-12-25 03:59:00,20.3,18.6,30.44,East,90,0.0,0.0,93,0.00,,SKC,0.00,VWS V13.00,2013-12-25 09:59:00,
2013-12-25 04:04:00,20.4,18.7,30.44,East,90,0.0,0.0,93,0.00,,SKC,0.00,VWS V13.00,2013-12-25 10:04:00,
2013-12-25 04:09:00,20.6,18.9,30.44,East,90,0.0,0.0,93,0.00,,SKC,0.00,VWS V13.00,2013-12-25 10:09:00,
2013-12-25 04:14:00,20.6,18.9,30.44,East,90,0.0,0.0,93,0.00,,SKC,0.00,VWS V13.00,2013-12-25 10:14:00,
2013-12-25 04:19:00,20.7,19.0,30.45,East,90,0.0,0.0,93,0.00,,SKC,0.00,VWS V13.00,2013-12-25 10:19:00,
2013-12-25 04:24:00,20.7,18.8,30.45,East,90,0.0,0.0,92,0.00,,SKC,0.00,VWS V13.00,2013-12-25 10:24:00,
2013-12-25 04:29:00,20.6,18.6,30.44,East,90,0.0,0.0,92,0.00,,SKC,0.00,VWS V13.00,2013-12-25 10:29:00,
2013-12-25 04:34:00,20.6,18.6,30.44,East,90,0.0,0.0,92,0.00,,SKC,0.00,VWS V13.00,2013-12-25 10:34:00,
2013-12-25 04:39:00,20.6,18.6,30.44,East,90,0.0,0.0,92,0.00,,SKC,0.00,VWS V13.00,2013-12-25 10:39:00,
2013-12-25 04:44:00,20.6,18.6,30.44,East,90,0.0,0.0,92,0.00,,SKC,0.00,VWS V13.00,2013-12-25 10:44:00,
2013-12-25 04:49:00,20.5,18.5,30.44,East,90,0.0,0.0,92,0.00,,SKC,0.00,VWS V13.00,2013-12-25 10:49:00,
2013-12-25 04:54:00,20.3,18.4,30.45,East,90,0.0,0.0,92,0.00,,SKC,0.00,VWS V13.00,2013-12-25 10:54:00,
2013-12-25 04:59:00,20.2,18.2,30.45,East,90,0.0,0.0,92,0.00,,SKC,0.00,VWS V13.00,2013-12-25 10:59:00,
2013-12-25 05:04:00,20.1,18.1,30.45,East,90,0.0,0.0,92,0.00,,SKC,0.00,VWS V13.00,2013-12-25 11:04:00,
2013-12-25 05:09:00,20.1,18.4,30.45,East,90,0.0,0.0,93,0.00,,SKC,0.00,VWS V13.00,2013-12-25 11:09:00,
2013-12-25 05:14:00,20.2,18.5,30.45,East,90,0.0,0.0,93,0.00,,SKC,0.00,VWS V13.00,2013-12-25 11:14:00,
2013-12-25 05:19:00,20.2,18.5,30.45,East,90,0.0,0.0,93,0.00,,SKC,0.00,VWS V13.00,2013-12-25 11:19:00,
2013-12-25 05:24:00,20.1,18.1,30.45,East,90,0.0,0.0,92,0.00,,SKC,0.00,VWS V13.00,2013-12-25 11:24:00,
2013-12-25 05:29:00,19.9,18.0,30.45,East,90,0.0,0.0,92,0.00,,SKC,0.00,VWS V13.00,2013-12-25 11:29:00,
2013-12-25 05:34:00,19.8,17.9,30.45,East,90,0.0,0.0,92,0.00,,SKC,0.00,VWS V13.00,2013-12-25 11:34:00,
2013-12-25 05:39:00,19.8,18.1,30.45,East,90,0.0,1.0,93,0.00,,SKC,0.00,VWS V13.00,2013-12-25 11:39:00,
2013-12-25 05:44:00,19.9,18.2,30.45,East,90,0.0,1.0,93,0.00,,SKC,0.00,VWS V13.00,2013-12-25 11:44:00,
2013-12-25 05:49:00,20.0,18.3,30.45,East,90,0.0,1.0,93,0.00,,SKC,0.00,VWS V13.00,2013-12-25 11:49:00,
2013-12-25 05:54:00,20.1,18.1,30.45,East,90,0.0,1.0,92,0.00,,SKC,0.00,VWS V13.00,2013-12-25 11:54:00,
2013-12-25 05:59:00,20.2,18.2,30.45,East,91,0.0,1.0,92,0.00,,SKC,0.00,VWS V13.00,2013-12-25 11:59:00,
2013-12-25 06:04:00,20.6,18.6,30.45,East,91,0.0,2.0,92,0.00,,SKC,0.00,VWS V13.00,2013-12-25 12:04:00,
2013-12-25 06:09:00,20.8,18.9,30.45,East,90,1.0,2.0,92,0.00,,SKC,0.00,VWS V13.00,2013-12-25 12:09:00,
2013-12-25 06:14:00,20.8,18.6,30.45,East,94,0.0,2.0,91,0.00,,SKC,0.00,VWS V13.00,2013-12-25 12:14:00,
2013-12-25 06:19:00,20.6,18.6,30.45,East,98,0.0,2.0,92,0.00,,SKC,0.00,VWS V13.00,2013-12-25 12:19:00,
2013-12-25 06:24:00,20.6,18.6,30.46,East,99,0.0,2.0,92,0.00,,SKC,0.00,VWS V13.00,2013-12-25 12:24:00,
2013-12-25 06:29:00,21.1,19.1,30.46,ESE,103,0.0,2.0,92,0.00,,SKC,0.00,VWS V13.00,2013-12-25 12:29:00,
2013-12-25 06:34:00,21.8,19.6,30.46,ESE,105,1.0,2.0,91,0.00,,SKC,0.00,VWS V13.00,2013-12-25 12:34:00,
2013-12-25 06:39:00,22.5,19.8,30.46,ESE,106,0.0,2.0,89,0.00,,SKC,0.00,VWS V13.00,2013-12-25 12:39:00,
2013-12-25 06:44:00,23.2,19.9,30.46,ESE,106,1.0,2.0,87,0.00,,SKC,0.00,VWS V13.00,2013-12-25 12:44:00,
2013-12-25 06:49:00,23.4,20.1,30.46,ESE,106,0.0,2.0,87,0.00,,SKC,0.00,VWS V13.00,2013-12-25 12:49:00,
2013-12-25 06:54:00,23.2,19.9,30.45,ESE,110,1.0,4.0,87,0.00,,SKC,0.00,VWS V13.00,2013-12-25 12:54:00,
2013-12-25 06:59:00,23.1,19.8,30.46,East,97,3.0,6.0,87,0.00,,SKC,0.00,VWS V13.00,2013-12-25 12:59:00,
2013-12-25 07:04:00,23.4,20.1,30.46,ESE,102,1.0,4.0,87,0.00,,SKC,0.00,VWS V13.00,2013-12-25 13:04:00,
2013-12-25 07:09:00,23.8,20.2,30.46,SE,126,0.0,4.0,86,0.00,,SKC,0.00,VWS V13.00,2013-12-25 13:09:00,
2013-12-25 07:14:00,24.4,20.5,30.46,ESE,104,1.0,5.0,85,0.00,,SKC,0.00,VWS V13.00,2013-12-25 13:14:00,
2013-12-25 07:19:00,25.0,20.9,30.46,ESE,117,2.0,5.0,84,0.00,,SKC,0.00,VWS V13.00,2013-12-25 13:19:00,
2013-12-25 07:24:00,25.8,21.4,30.46,ESE,113,2.0,7.0,83,0.00,,SKC,0.00,VWS V13.00,2013-12-25 13:24:00,
2013-12-25 07:29:00,26.6,21.9,30.46,ESE,109,2.0,7.0,82,0.00,,SKC,0.00,VWS V13.00,2013-12-25 13:29:00,
2013-12-25 07:33:00,27.3,22.2,30.46,SE,124,8.0,8.0,81,0.00,,SKC,0.00,VWS V13.00,2013-12-25 13:33:00,
2013-12-25 07:38:00,28.0,22.6,30.46,ESE,103,3.0,8.0,80,0.00,,SKC,0.00,VWS V13.00,2013-12-25 13:38:00,
2013-12-25 07:43:00,28.6,22.6,30.46,East,101,1.0,9.0,78,0.00,,SKC,0.00,VWS V13.00,2013-12-25 13:43:00,
2013-12-25 07:48:00,29.1,23.1,30.46,East,94,3.0,9.0,78,0.00,,SKC,0.00,VWS V13.00,2013-12-25 13:48:00,
2013-12-25 07:53:00,29.5,23.2,30.46,ESE,103,4.0,9.0,77,0.00,,SKC,0.00,VWS V13.00,2013-12-25 13:53:00,
2013-12-25 07:58:00,29.9,23.6,30.45,ESE,119,1.0,11.0,77,0.00,,SKC,0.00,VWS V13.00,2013-12-25 13:58:00,
2013-12-25 08:03:00,30.3,23.3,30.46,SE,126,9.0,9.0,75,0.00,,SKC,0.00,VWS V13.00,2013-12-25 14:03:00,
2013-12-25 08:08:00,30.7,23.7,30.45,SE,134,6.0,13.0,75,0.00,,SKC,0.00,VWS V13.00,2013-12-25 14:08:00,
2013-12-25 08:13:00,31.0,23.4,30.45,SE,130,4.0,13.0,73,0.00,,SKC,0.00,VWS V13.00,2013-12-25 14:13:00,
2013-12-25 08:18:00,31.2,23.6,30.45,SSE,162,5.0,13.0,73,0.00,,SKC,0.00,VWS V13.00,2013-12-25 14:18:00,
2013-12-25 08:23:00,31.5,23.5,30.45,SE,140,8.0,13.0,72,0.00,,SKC,0.00,VWS V13.00,2013-12-25 14:23:00,
2013-12-25 08:28:00,31.7,23.7,30.45,SE,140,7.0,13.0,72,0.00,,SKC,0.00,VWS V13.00,2013-12-25 14:28:00,
2013-12-25 08:33:00,32.1,24.8,30.45,South,181,1.0,5.0,74,0.00,,SKC,0.00,VWS V13.00,2013-12-25 14:33:00,
2013-12-25 08:38:00,32.3,24.3,30.46,East,82,7.0,19.0,72,0.00,,SKC,0.00,VWS V13.00,2013-12-25 14:38:00,
2013-12-25 08:43:00,32.4,23.7,30.46,East,101,5.0,19.0,70,0.00,,SKC,0.00,VWS V13.00,2013-12-25 14:43:00,
2013-12-25 08:48:00,32.6,23.6,30.46,SE,124,5.0,19.0,69,0.00,,SKC,0.00,VWS V13.00,2013-12-25 14:48:00,
2013-12-25 08:53:00,32.8,24.1,30.46,SE,129,4.0,19.0,70,0.00,,SKC,0.00,VWS V13.00,2013-12-25 14:53:00,
2013-12-25 08:58:00,33.1,24.4,30.46,ESE,109,7.0,19.0,70,0.00,,SKC,0.00,VWS V13.00,2013-12-25 14:58:00,
2013-12-25 09:03:00,33.4,24.0,30.46,SE,133,10.0,10.0,68,0.00,,SKC,0.00,VWS V13.00,2013-12-25 15:03:00,
2013-12-25 09:08:00,33.9,24.8,30.46,SE,127,1.0,10.0,69,0.00,,SKC,0.00,VWS V13.00,2013-12-25 15:08:00,
2013-12-25 09:13:00,34.3,24.9,30.46,SE,138,3.0,10.0,68,0.00,,SKC,0.00,VWS V13.00,2013-12-25 15:13:00,
2013-12-25 09:18:00,34.4,24.2,30.46,ESE,115,5.0,13.0,66,0.00,,SKC,0.00,VWS V13.00,2013-12-25 15:18:00,
2013-12-25 09:23:00,34.4,24.2,30.46,SE,146,3.0,13.0,66,0.00,,SKC,0.00,VWS V13.00,2013-12-25 15:23:00,
2013-12-25 09:28:00,34.6,24.1,30.46,ESE,103,5.0,13.0,65,0.00,,SKC,0.00,VWS V13.00,2013-12-25 15:28:00,
2013-12-25 09:33:00,34.9,24.3,30.46,ESE,105,2.0,10.0,65,0.00,,SKC,0.00,VWS V13.00,2013-12-25 15:33:00,
2013-12-25 09:38:00,35.2,24.6,30.46,SE,139,4.0,10.0,65,0.00,,SKC,0.00,VWS V13.00,2013-12-25 15:38:00,
2013-12-25 09:43:00,35.6,24.6,30.46,South,178,11.0,13.0,64,0.00,,SKC,0.00,VWS V13.00,2013-12-25 15:43:00,
2013-12-25 09:48:00,35.9,25.3,30.46,South,183,5.0,13.0,65,0.00,,SKC,0.00,VWS V13.00,2013-12-25 15:48:00,
2013-12-25 09:53:00,36.5,25.5,30.46,ESE,115,6.0,13.0,64,0.00,,SKC,0.00,VWS V13.00,2013-12-25 15:53:00,
2013-12-25 09:58:00,37.0,25.6,30.45,ESE,121,6.0,13.0,63,0.00,,SKC,0.00,VWS V13.00,2013-12-25 15:58:00,
2013-12-25 10:03:00,37.1,24.9,30.45,SSE,147,10.0,10.0,61,0.00,,SKC,0.00,VWS V13.00,2013-12-25 16:03:00,
2013-12-25 10:08:00,37.1,24.5,30.45,SE,131,7.0,10.0,60,0.00,,SKC,0.00,VWS V13.00,2013-12-25 16:08:00,
2013-12-25 10:13:00,37.3,25.1,30.45,SE,136,9.0,10.0,61,0.00,,SKC,0.00,VWS V13.00,2013-12-25 16:13:00,
2013-12-25 10:18:00,37.6,25.8,30.44,SSE,149,5.0,12.0,62,0.00,,SKC,0.00,VWS V13.00,2013-12-25 16:18:00,
2013-12-25 10:23:00,38.0,25.0,30.44,SE,146,8.0,12.0,59,0.00,,SKC,0.00,VWS V13.00,2013-12-25 16:23:00,
2013-12-25 10:28:00,38.4,25.7,30.44,SE,124,4.0,12.0,60,0.00,,SKC,0.00,VWS V13.00,2013-12-25 16:28:00,
2013-12-25 10:33:00,39.0,26.3,30.43,SSE,153,3.0,4.0,60,0.00,,SKC,0.00,VWS V13.00,2013-12-25 16:33:00,
2013-12-25 10:38:00,39.5,26.0,30.43,South,182,6.0,10.0,58,0.00,,SKC,0.00,VWS V13.00,2013-12-25 16:38:00,
2013-12-25 10:43:00,39.6,25.6,30.43,South,191,9.0,12.0,57,0.00,,SKC,0.00,VWS V13.00,2013-12-25 16:43:00,
2013-12-25 10:48:00,39.8,26.2,30.43,SSE,167,2.0,12.0,58,0.00,,SKC,0.00,VWS V13.00,2013-12-25 16:48:00,
2013-12-25 10:53:00,40.2,25.8,30.43,South,185,2.0,12.0,56,0.00,,SKC,0.00,VWS V13.00,2013-12-25 16:53:00,
2013-12-25 10:58:00,40.6,26.6,30.43,SSE,158,7.0,12.0,57,0.00,,SKC,0.00,VWS V13.00,2013-12-25 16:58:00,
2013-12-25 11:03:00,40.7,26.7,30.43,SSE,163,5.0,7.0,57,0.00,,SKC,0.00,VWS V13.00,2013-12-25 17:03:00,
2013-12-25 11:08:00,41.0,27.0,30.42,South,180,6.0,8.0,57,0.00,,SKC,0.00,VWS V13.00,2013-12-25 17:08:00,
2013-12-25 11:13:00,41.0,26.5,30.42,South,186,4.0,8.0,56,0.00,,SKC,0.00,VWS V13.00,2013-12-25 17:13:00,
2013-12-25 11:18:00,41.3,27.2,30.41,SSW,202,9.0,11.0,57,0.00,,SKC,0.00,VWS V13.00,2013-12-25 17:18:00,
2013-12-25 11:23:00,41.7,28.0,30.41,South,184,4.0,11.0,58,0.00,,SKC,0.00,VWS V13.00,2013-12-25 17:23:00,
2013-12-25 11:28:00,42.2,28.5,30.40,South,171,9.0,11.0,58,0.00,,SKC,0.00,VWS V13.00,2013-12-25 17:28:00,
2013-12-25 11:33:00,42.6,28.0,30.40,SSW,207,6.0,8.0,56,0.00,,SKC,0.00,VWS V13.00,2013-12-25 17:33:00,
2013-12-25 11:38:00,42.9,28.7,30.39,SSE,157,4.0,9.0,57,0.00,,SKC,0.00,VWS V13.00,2013-12-25 17:38:00,
2013-12-25 11:43:00,43.2,29.0,30.39,SSW,205,6.0,9.0,57,0.00,,SKC,0.00,VWS V13.00,2013-12-25 17:43:00,
2013-12-25 11:48:00,43.3,28.2,30.39,ESE,123,5.0,9.0,55,0.00,,SKC,0.00,VWS V13.00,2013-12-25 17:48:00,
2013-12-25 11:53:00,43.4,28.8,30.39,SSE,148,4.0,9.0,56,0.00,,SKC,0.00,VWS V13.00,2013-12-25 17:53:00,
2013-12-25 11:58:00,43.7,28.2,30.38,SW,221,2.0,10.0,54,0.00,,SKC,0.00,VWS V13.00,2013-12-25 17:58:00,
2013-12-25 12:03:00,44.0,28.4,30.38,SSW,205,8.0,9.0,54,0.00,,SKC,0.00,VWS V13.00,2013-12-25 18:03:00,
2013-12-25 12:08:00,44.1,28.5,30.38,SSW,203,5.0,9.0,54,0.00,,SKC,0.00,VWS V13.00,2013-12-25 18:08:00,
2013-12-25 12:13:00,44.2,28.2,30.38,South,170,0.0,9.0,53,0.00,,SKC,0.00,VWS V13.00,2013-12-25 18:13:00,
2013-12-25 12:18:00,44.5,28.5,30.37,South,170,3.0,9.0,53,0.00,,SKC,0.00,VWS V13.00,2013-12-25 18:18:00,
2013-12-25 12:23:00,44.5,28.5,30.37,South,182,1.0,9.0,53,0.00,,SKC,0.00,VWS V13.00,2013-12-25 18:23:00,
2013-12-25 12:28:00,44.9,29.3,30.36,South,190,1.0,9.0,54,0.00,,SKC,0.00,VWS V13.00,2013-12-25 18:28:00,
2013-12-25 12:33:00,45.3,28.7,30.36,South,169,7.0,7.0,52,0.00,,SKC,0.00,VWS V13.00,2013-12-25 18:33:00,
2013-12-25 12:38:00,44.9,27.9,30.36,SE,126,4.0,9.0,51,0.00,,SKC,0.00,VWS V13.00,2013-12-25 18:38:00,
2013-12-25 12:43:00,44.9,29.3,30.35,South,184,0.0,9.0,54,0.00,,SKC,0.00,VWS V13.00,2013-12-25 18:43:00,
2013-12-25 12:48:00,45.5,28.9,30.35,SSW,209,6.0,9.0,52,0.00,,SKC,0.00,VWS V13.00,2013-12-25 18:48:00,
2013-12-25 12:53:00,45.6,28.5,30.35,SSW,202,4.0,9.0,51,0.00,,SKC,0.00,VWS V13.00,2013-12-25 18:53:00,
2013-12-25 12:58:00,45.7,28.6,30.34,SSW,194,5.0,9.0,51,0.00,,SKC,0.00,VWS V13.00,2013-12-25 18:58:00,
2013-12-25 13:03:00,46.1,29.0,30.34,SW,229,6.0,6.0,51,0.00,,SKC,0.00,VWS V13.00,2013-12-25 19:03:00,
2013-12-25 13:08:00,46.2,28.6,30.34,ESE,108,3.0,8.0,50,0.00,,SKC,0.00,VWS V13.00,2013-12-25 19:08:00,
2013-12-25 13:13:00,46.2,28.1,30.34,South,184,5.0,8.0,49,0.00,,SKC,0.00,VWS V13.00,2013-12-25 19:13:00,
2013-12-25 13:18:00,46.3,29.2,30.34,ESE,123,1.0,8.0,51,0.00,,SKC,0.00,VWS V13.00,2013-12-25 19:18:00,
2013-12-25 13:23:00,46.5,28.9,30.34,SSW,201,0.0,8.0,50,0.00,,SKC,0.00,VWS V13.00,2013-12-25 19:23:00,
2013-12-25 13:27:00,46.7,28.6,30.33,SSE,147,2.0,8.0,49,0.00,,SKC,0.00,VWS V13.00,2013-12-25 19:27:00,
2013-12-25 13:32:00,46.5,28.4,30.34,South,172,0.0,3.0,49,0.00,,SKC,0.00,VWS V13.00,2013-12-25 19:32:00,
2013-12-25 13:37:00,46.5,28.9,30.33,SSE,152,5.0,8.0,50,0.00,,SKC,0.00,VWS V13.00,2013-12-25 19:37:00,
2013-12-25 13:42:00,46.4,28.3,30.33,SSW,193,5.0,8.0,49,0.00,,SKC,0.00,VWS V13.00,2013-12-25 19:42:00,
2013-12-25 13:44:00,46.4,28.8,30.33,SSE,161,4.0,8.0,50,0.00,,SKC,0.00,VWS V13.00,2013-12-25 19:44:00,
2013-12-25 13:49:00,46.5,28.9,30.33,SSE,152,2.0,8.0,50,0.00,,SKC,0.00,VWS V13.00,2013-12-25 19:49:00,
2013-12-25 13:54:00,46.9,29.7,30.33,SW,215,5.0,8.0,51,0.00,,SKC,0.00,VWS V13.00,2013-12-25 19:54:00,
2013-12-25 13:59:00,47.1,28.9,30.33,SSW,202,1.0,8.0,49,0.00,,SKC,0.00,VWS V13.00,2013-12-25 19:59:00,
2013-12-25 14:04:00,47.4,28.7,30.33,SSW,209,5.0,8.0,48,0.00,,SKC,0.00,VWS V13.00,2013-12-25 20:04:00,
2013-12-25 14:09:00,47.4,29.2,30.33,SSW,201,0.0,8.0,49,0.00,,SKC,0.00,VWS V13.00,2013-12-25 20:09:00,
2013-12-25 14:14:00,47.7,29.0,30.33,SSE,152,5.0,8.0,48,0.00,,SKC,0.00,VWS V13.00,2013-12-25 20:14:00,
2013-12-25 14:19:00,47.4,29.7,30.33,South,174,5.0,8.0,50,0.00,,SKC,0.00,VWS V13.00,2013-12-25 20:19:00,
2013-12-25 14:23:00,47.3,29.1,30.33,SE,138,0.0,8.0,49,0.00,,SKC,0.00,VWS V13.00,2013-12-25 20:23:00,
2013-12-25 14:28:00,47.3,28.6,30.33,SE,142,2.0,8.0,48,0.00,,SKC,0.00,VWS V13.00,2013-12-25 20:28:00,
2013-12-25 14:33:00,47.2,28.5,30.33,SSE,165,2.0,5.0,48,0.00,,SKC,0.00,VWS V13.00,2013-12-25 20:33:00,
2013-12-25 14:38:00,47.2,29.0,30.33,South,182,2.0,5.0,49,0.00,,SKC,0.00,VWS V13.00,2013-12-25 20:38:00,
2013-12-25 14:43:00,47.2,28.5,30.33,South,189,4.0,6.0,48,0.00,,SKC,0.00,VWS V13.00,2013-12-25 20:43:00,
2013-12-25 14:48:00,47.0,28.9,30.33,SSW,207,6.0,7.0,49,0.00,,SKC,0.00,VWS V13.00,2013-12-25 20:48:00,
2013-12-25 14:53:00,46.9,28.8,30.33,SSW,196,2.0,7.0,49,0.00,,SKC,0.00,VWS V13.00,2013-12-25 20:53:00,
2013-12-25 14:58:00,47.4,29.7,30.33,South,188,2.0,7.0,50,0.00,,SKC,0.00,VWS V13.00,2013-12-25 20:58:00,
2013-12-25 15:03:00,47.3,29.1,30.34,South,178,3.0,5.0,49,0.00,,SKC,0.00,VWS V13.00,2013-12-25 21:03:00,
2013-12-25 15:08:00,47.1,28.4,30.34,South,186,1.0,6.0,48,0.00,,SKC,0.00,VWS V13.00,2013-12-25 21:08:00,
2013-12-25 15:13:00,46.9,29.2,30.34,South,170,4.0,6.0,50,0.00,,SKC,0.00,VWS V13.00,2013-12-25 21:13:00,
2013-12-25 15:18:00,46.8,28.7,30.34,SSE,164,0.0,6.0,49,0.00,,SKC,0.00,VWS V13.00,2013-12-25 21:18:00,
2013-12-25 15:23:00,46.8,28.7,30.34,SSE,164,0.0,6.0,49,0.00,,SKC,0.00,VWS V13.00,2013-12-25 21:23:00,
2013-12-25 15:28:00,46.5,29.4,30.34,SSE,164,0.0,6.0,51,0.00,,SKC,0.00,VWS V13.00,2013-12-25 21:28:00,
2013-12-25 15:33:00,46.3,28.2,30.34,SSE,164,1.0,4.0,49,0.00,,SKC,0.00,VWS V13.00,2013-12-25 21:33:00,
2013-12-25 15:38:00,45.9,28.8,30.34,SSE,164,0.0,4.0,51,0.00,,SKC,0.00,VWS V13.00,2013-12-25 21:38:00,
2013-12-25 15:43:00,45.4,28.4,30.34,SSE,164,0.0,4.0,51,0.00,,SKC,0.00,VWS V13.00,2013-12-25 21:43:00,
2013-12-25 15:48:00,45.2,28.6,30.34,SSE,164,0.0,4.0,52,0.00,,SKC,0.00,VWS V13.00,2013-12-25 21:48:00,
2013-12-25 15:53:00,45.0,28.5,30.34,SSE,164,0.0,4.0,52,0.00,,SKC,0.00,VWS V13.00,2013-12-25 21:53:00,
2013-12-25 15:58:00,44.6,28.5,30.34,SSE,164,0.0,4.0,53,0.00,,SKC,0.00,VWS V13.00,2013-12-25 21:58:00,
2013-12-25 16:03:00,44.2,28.6,30.34,SSE,164,0.0,0.0,54,0.00,,SKC,0.00,VWS V13.00,2013-12-25 22:03:00,
2013-12-25 16:08:00,43.9,28.4,30.34,SSE,164,0.0,0.0,54,0.00,,SKC,0.00,VWS V13.00,2013-12-25 22:08:00,
2013-12-25 16:13:00,43.5,28.4,30.34,SSE,164,0.0,0.0,55,0.00,,SKC,0.00,VWS V13.00,2013-12-25 22:13:00,
2013-12-25 16:18:00,43.1,28.9,30.34,SSE,164,0.0,0.0,57,0.00,,SKC,0.00,VWS V13.00,2013-12-25 22:18:00,
2013-12-25 16:23:00,42.5,28.8,30.34,SSE,164,0.0,0.0,58,0.00,,SKC,0.00,VWS V13.00,2013-12-25 22:23:00,
2013-12-25 16:28:00,42.0,28.7,30.34,SSE,164,0.0,0.0,59,0.00,,SKC,0.00,VWS V13.00,2013-12-25 22:28:00,
2013-12-25 16:33:00,41.7,28.4,30.34,SSE,164,0.0,0.0,59,0.00,,SKC,0.00,VWS V13.00,2013-12-25 22:33:00,
2013-12-25 16:38:00,41.4,28.6,30.34,SSE,164,0.0,0.0,60,0.00,,SKC,0.00,VWS V13.00,2013-12-25 22:38:00,
2013-12-25 16:43:00,41.3,28.9,30.34,SSE,164,0.0,0.0,61,0.00,,SKC,0.00,VWS V13.00,2013-12-25 22:43:00,
2013-12-25 16:48:00,41.1,28.7,30.35,SSE,164,0.0,0.0,61,0.00,,SKC,0.00,VWS V13.00,2013-12-25 22:48:00,
2013-12-25 16:53:00,40.7,28.7,30.35,SSE,164,0.0,0.0,62,0.00,,SKC,0.00,VWS V13.00,2013-12-25 22:53:00,
2013-12-25 16:58:00,40.2,28.6,30.35,SSE,164,0.0,0.0,63,0.00,,SKC,0.00,VWS V13.00,2013-12-25 22:58:00,
2013-12-25 17:03:00,39.6,28.8,30.35,SSE,164,0.0,0.0,65,0.00,,SKC,0.00,VWS V13.00,2013-12-25 23:03:00,
2013-12-25 17:08:00,39.1,28.7,30.35,SSE,164,0.0,0.0,66,0.00,,SKC,0.00,VWS V13.00,2013-12-25 23:08:00,
2013-12-25 17:13:00,38.8,28.4,30.35,SSE,164,0.0,0.0,66,0.00,,SKC,0.00,VWS V13.00,2013-12-25 23:13:00,
2013-12-25 17:18:00,38.8,28.8,30.35,SSE,164,0.0,0.0,67,0.00,,SKC,0.00,VWS V13.00,2013-12-25 23:18:00,
2013-12-25 17:23:00,38.6,28.6,30.35,SSE,164,0.0,0.0,67,0.00,,SKC,0.00,VWS V13.00,2013-12-25 23:23:00,
2013-12-25 17:28:00,38.5,28.9,30.35,SSE,164,0.0,0.0,68,0.00,,SKC,0.00,VWS V13.00,2013-12-25 23:28:00,
2013-12-25 17:33:00,38.6,28.6,30.35,SSE,164,0.0,0.0,67,0.00,,SKC,0.00,VWS V13.00,2013-12-25 23:33:00,
2013-12-25 17:38:00,38.7,28.3,30.35,SSE,164,0.0,0.0,66,0.00,,SKC,0.00,VWS V13.00,2013-12-25 23:38:00,
2013-12-25 17:43:00,38.8,28.4,30.35,SSE,164,0.0,0.0,66,0.00,,SKC,0.00,VWS V13.00,2013-12-25 23:43:00,
2013-12-25 17:48:00,38.6,29.0,30.35,SSE,164,0.0,0.0,68,0.00,,SKC,0.00,VWS V13.00,2013-12-25 23:48:00,
2013-12-25 17:53:00,38.2,28.2,30.36,SSE,164,0.0,0.0,67,0.00,,SKC,0.00,VWS V13.00,2013-12-25 23:53:00,
2013-12-25 17:58:00,38.0,28.0,30.36,SSE,164,0.0,0.0,67,0.00,,SKC,0.00,VWS V13.00,2013-12-25 23:58:00,
2013-12-25 18:03:00,37.9,28.3,30.36,SSE,164,0.0,0.0,68,0.00,,SKC,0.00,VWS V13.00,2013-12-26 00:03:00,
2013-12-25 18:08:00,37.6,28.4,30.35,SSE,164,0.0,0.0,69,0.00,,SKC,0.00,VWS V13.00,2013-12-26 00:08:00,
2013-12-25 18:13:00,37.3,28.4,30.35,SSE,164,0.0,0.0,70,0.00,,SKC,0.00,VWS V13.00,2013-12-26 00:13:00,
2013-12-25 18:18:00,37.2,28.0,30.36,SSE,164,0.0,0.0,69,0.00,,SKC,0.00,VWS V13.00,2013-12-26 00:18:00,
2013-12-25 18:23:00,37.0,28.1,30.36,SSE,164,0.0,0.0,70,0.00,,SKC,0.00,VWS V13.00,2013-12-26 00:23:00,
2013-12-25 18:28:00,36.7,28.2,30.36,SSE,164,0.0,0.0,71,0.00,,SKC,0.00,VWS V13.00,2013-12-26 00:28:00,
2013-12-25 18:33:00,36.4,28.9,30.36,SSE,164,0.0,0.0,74,0.00,,SKC,0.00,VWS V13.00,2013-12-26 00:33:00,
2013-12-25 18:38:00,36.3,28.1,30.37,SSE,164,0.0,0.0,72,0.00,,SKC,0.00,VWS V13.00,2013-12-26 00:38:00,
2013-12-25 18:43:00,35.8,28.3,30.37,SSE,164,0.0,0.0,74,0.00,,SKC,0.00,VWS V13.00,2013-12-26 00:43:00,
2013-12-25 18:48:00,35.8,29.0,30.37,SSE,164,0.0,0.0,76,0.00,,SKC,0.00,VWS V13.00,2013-12-26 00:48:00,
2013-12-25 18:53:00,35.6,28.8,30.37,SSE,164,0.0,0.0,76,0.00,,SKC,0.00,VWS V13.00,2013-12-26 00:53:00,
2013-12-25 18:58:00,35.6,29.4,30.37,SSE,164,0.0,0.0,78,0.00,,SKC,0.00,VWS V13.00,2013-12-26 00:58:00,
2013-12-25 19:03:00,35.7,29.5,30.35,SSE,164,0.0,0.0,78,0.00,,SKC,0.00,VWS V13.00,2013-12-26 01:03:00,
2013-12-25 19:08:00,35.6,29.4,30.35,SSE,164,0.0,0.0,78,0.00,,SKC,0.00,VWS V13.00,2013-12-26 01:08:00,
2013-12-25 19:13:00,35.3,30.1,30.35,SSE,164,0.0,0.0,81,0.00,,SKC,0.00,VWS V13.00,2013-12-26 01:13:00,
2013-12-25 19:18:00,34.9,29.7,30.36,SSE,164,0.0,0.0,81,0.00,,SKC,0.00,VWS V13.00,2013-12-26 01:18:00,
2013-12-25 19:23:00,34.4,29.8,30.36,SSE,164,0.0,0.0,83,0.00,,SKC,0.00,VWS V13.00,2013-12-26 01:23:00,
2013-12-25 19:28:00,34.1,29.5,30.36,SSE,164,0.0,0.0,83,0.00,,SKC,0.00,VWS V13.00,2013-12-26 01:28:00,
2013-12-25 19:33:00,33.8,29.5,30.36,SSE,164,0.0,0.0,84,0.00,,SKC,0.00,VWS V13.00,2013-12-26 01:33:00,
2013-12-25 19:38:00,33.6,29.6,30.36,SSE,164,0.0,0.0,85,0.00,,SKC,0.00,VWS V13.00,2013-12-26 01:38:00,
2013-12-25 19:43:00,33.4,29.7,30.37,SSE,164,0.0,0.0,86,0.00,,SKC,0.00,VWS V13.00,2013-12-26 01:43:00,
2013-12-25 19:48:00,33.2,28.9,30.36,SSE,164,0.0,0.0,84,0.00,,SKC,0.00,VWS V13.00,2013-12-26 01:48:00,
2013-12-25 19:53:00,33.4,28.2,30.36,SSE,160,0.0,4.0,81,0.00,,SKC,0.00,VWS V13.00,2013-12-26 01:53:00,
2013-12-25 19:58:00,35.1,28.3,30.35,SSE,160,0.0,5.0,76,0.00,,SKC,0.00,VWS V13.00,2013-12-26 01:58:00,
2013-12-25 20:03:00,36.7,28.9,30.35,SSE,161,2.0,2.0,73,0.00,,SKC,0.00,VWS V13.00,2013-12-26 02:03:00,
2013-12-25 20:08:00,37.6,28.7,30.35,SSE,166,3.0,4.0,70,0.00,,SKC,0.00,VWS V13.00,2013-12-26 02:08:00,
2013-12-25 20:13:00,37.9,29.0,30.34,SSE,163,1.0,6.0,70,0.00,,SKC,0.00,VWS V13.00,2013-12-26 02:13:00,
2013-12-25 20:18:00,38.0,28.8,30.35,South,174,0.0,6.0,69,0.00,,SKC,0.00,VWS V13.00,2013-12-26 02:18:00,
2013-12-25 20:23:00,38.2,28.6,30.35,SSE,150,0.0,6.0,68,0.00,,SKC,0.00,VWS V13.00,2013-12-26 02:23:00,
2013-12-25 20:28:00,38.3,28.7,30.35,SE,138,0.0,6.0,68,0.00,,SKC,0.00,VWS V13.00,2013-12-26 02:28:00,
2013-12-25 20:33:00,38.3,28.7,30.35,South,187,1.0,2.0,68,0.00,,SKC,0.00,VWS V13.00,2013-12-26 02:33:00,
2013-12-25 20:38:00,38.4,28.4,30.35,SE,146,2.0,5.0,67,0.00,,SKC,0.00,VWS V13.00,2013-12-26 02:38:00,
2013-12-25 20:43:00,38.5,28.5,30.34,SE,146,1.0,5.0,67,0.00,,SKC,0.00,VWS V13.00,2013-12-26 02:43:00,
2013-12-25 20:48:00,38.5,28.5,30.34,SSE,147,0.0,5.0,67,0.00,,SKC,0.00,VWS V13.00,2013-12-26 02:48:00,
2013-12-25 20:53:00,38.6,28.6,30.35,South,185,0.0,5.0,67,0.00,,SKC,0.00,VWS V13.00,2013-12-26 02:53:00,
2013-12-25 20:58:00,38.5,28.1,30.35,South,185,0.0,5.0,66,0.00,,SKC,0.00,VWS V13.00,2013-12-26 02:58:00,
2013-12-25 21:03:00,38.4,28.0,30.35,South,185,0.0,0.0,66,0.00,,SKC,0.00,VWS V13.00,2013-12-26 03:03:00,
2013-12-25 21:08:00,38.3,28.3,30.35,South,185,0.0,0.0,67,0.00,,SKC,0.00,VWS V13.00,2013-12-26 03:08:00,
2013-12-25 21:13:00,37.9,28.3,30.35,South,185,0.0,0.0,68,0.00,,SKC,0.00,VWS V13.00,2013-12-26 03:13:00,
2013-12-25 21:18:00,37.5,27.9,30.35,South,185,0.0,0.0,68,0.00,,SKC,0.00,VWS V13.00,2013-12-26 03:18:00,
2013-12-25 21:23:00,36.9,28.0,30.35,South,185,0.0,0.0,70,0.00,,SKC,0.00,VWS V13.00,2013-12-26 03:23:00,
2013-12-25 21:28:00,36.4,28.6,30.35,South,185,0.0,0.0,73,0.00,,SKC,0.00,VWS V13.00,2013-12-26 03:28:00,
2013-12-25 21:33:00,35.8,28.0,30.35,South,185,0.0,0.0,73,0.00,,SKC,0.00,VWS V13.00,2013-12-26 03:33:00,
2013-12-25 21:38:00,35.3,27.9,30.35,South,185,0.0,0.0,74,0.00,,SKC,0.00,VWS V13.00,2013-12-26 03:38:00,
2013-12-25 21:43:00,35.0,27.9,30.36,South,185,0.0,0.0,75,0.00,,SKC,0.00,VWS V13.00,2013-12-26 03:43:00,
2013-12-25 21:48:00,34.6,27.8,30.36,South,185,0.0,0.0,76,0.00,,SKC,0.00,VWS V13.00,2013-12-26 03:48:00,
2013-12-25 21:53:00,34.2,27.8,30.37,South,185,0.0,0.0,77,0.00,,SKC,0.00,VWS V13.00,2013-12-26 03:53:00,
2013-12-25 21:58:00,33.8,27.7,30.37,South,185,0.0,0.0,78,0.00,,SKC,0.00,VWS V13.00,2013-12-26 03:58:00,
2013-12-25 22:03:00,33.4,27.6,30.36,South,185,0.0,0.0,79,0.00,,SKC,0.00,VWS V13.00,2013-12-26 04:03:00,
2013-12-25 22:08:00,33.2,27.7,30.36,South,185,0.0,0.0,80,0.00,,SKC,0.00,VWS V13.00,2013-12-26 04:08:00,
2013-12-25 22:13:00,33.3,28.1,30.35,South,185,0.0,0.0,81,0.00,,SKC,0.00,VWS V13.00,2013-12-26 04:13:00,
2013-12-25 22:18:00,33.7,27.6,30.36,South,185,0.0,0.0,78,0.00,,SKC,0.00,VWS V13.00,2013-12-26 04:18:00,
2013-12-25 22:23:00,34.3,28.2,30.36,South,185,0.0,1.0,78,0.00,,SKC,0.00,VWS V13.00,2013-12-26 04:23:00,
2013-12-25 22:28:00,34.6,27.8,30.35,South,185,0.0,1.0,76,0.00,,SKC,0.00,VWS V13.00,2013-12-26 04:28:00,
2013-12-25 22:32:00,34.7,27.9,30.35,South,185,0.0,0.0,76,0.00,,SKC,0.00,VWS V13.00,2013-12-26 04:32:00,
2013-12-25 22:37:00,34.6,27.8,30.35,South,185,0.0,0.0,76,0.00,,SKC,0.00,VWS V13.00,2013-12-26 04:37:00,
2013-12-25 22:42:00,34.6,27.5,30.35,South,185,0.0,1.0,75,0.00,,SKC,0.00,VWS V13.00,2013-12-26 04:42:00,
2013-12-25 22:47:00,34.9,27.5,30.35,South,185,0.0,1.0,74,0.00,,SKC,0.00,VWS V13.00,2013-12-26 04:47:00,
2013-12-25 22:52:00,34.9,27.8,30.35,South,185,0.0,1.0,75,0.00,,SKC,0.00,VWS V13.00,2013-12-26 04:52:00,
2013-12-25 22:57:00,34.4,28.0,30.35,South,185,0.0,1.0,77,0.00,,SKC,0.00,VWS V13.00,2013-12-26 04:57:00,
2013-12-25 23:01:00,34.0,27.9,30.35,South,185,0.0,1.0,78,0.00,,SKC,0.00,VWS V13.00,2013-12-26 05:01:00,
2013-12-25 23:06:00,33.2,28.0,30.35,South,185,0.0,0.0,81,0.00,,SKC,0.00,VWS V13.00,2013-12-26 05:06:00,
2013-12-25 23:11:00,32.6,28.0,30.35,South,185,0.0,0.0,83,0.00,,SKC,0.00,VWS V13.00,2013-12-26 05:11:00,
2013-12-25 23:16:00,32.1,27.5,30.35,South,185,0.0,0.0,83,0.00,,SKC,0.00,VWS V13.00,2013-12-26 05:16:00,
2013-12-25 23:21:00,31.8,27.5,30.35,South,185,0.0,0.0,84,0.00,,SKC,0.00,VWS V13.00,2013-12-26 05:21:00,
2013-12-25 23:26:00,31.7,27.4,30.34,South,185,0.0,0.0,84,0.00,,SKC,0.00,VWS V13.00,2013-12-26 05:26:00,
2013-12-25 23:31:00,31.6,27.3,30.34,South,185,0.0,0.0,84,0.00,,SKC,0.00,VWS V13.00,2013-12-26 05:31:00,
2013-12-25 23:36:00,31.4,27.1,30.34,South,185,0.0,0.0,84,0.00,,SKC,0.00,VWS V13.00,2013-12-26 05:36:00,
2013-12-25 23:41:00,31.2,26.9,30.35,South,185,0.0,0.0,84,0.00,,SKC,0.00,VWS V13.00,2013-12-26 05:41:00,
2013-12-25 23:46:00,31.0,26.7,30.35,South,185,0.0,0.0,84,0.00,,SKC,0.00,VWS V13.00,2013-12-26 05:46:00,
2013-12-25 23:51:00,30.7,26.7,30.35,South,185,0.0,0.0,85,0.00,,SKC,0.00,VWS V13.00,2013-12-26 05:51:00,
2013-12-25 23:56:00,30.5,26.5,30.35,South,185,0.0,0.0,85,0.00,,SKC,0.00,VWS V13.00,2013-12-26 05:56:00,